createdAt,value
2022-08-08T00:01:18.129Z,97769.31
2022-08-08T00:03:56.070Z,97784.88
2022-08-08T00:06:36.783Z,97801.31
2022-08-08T00:09:15.703Z,97787.53
2022-08-08T00:12:06.792Z,97786.69
2022-08-08T00:14:59.872Z,97801.31
2022-08-08T00:17:58.694Z,97797.78
2022-08-08T00:20:37.416Z,97801.28
2022-08-08T00:23:10.485Z,97810.47
2022-08-08T00:25:46.845Z,97773.94
2022-08-08T00:28:35.286Z,97704.50
2022-08-08T00:32:20.231Z,97803.44
2022-08-08T00:34:35.695Z,97804.59
2022-08-08T00:37:16.491Z,97803.00
2022-08-08T00:41:10.464Z,97784.22
2022-08-08T00:44:10.942Z,97801.38
2022-08-08T00:47:23.255Z,97803.19
2022-08-08T00:50:22.721Z,97776.50
2022-08-08T00:53:01.585Z,97801.13
2022-08-08T00:56:11.504Z,97809.31
2022-08-08T00:59:18.689Z,97812.69
2022-08-08T01:03:15.306Z,97806.34
2022-08-08T01:05:59.732Z,97813.19
2022-08-08T01:09:36.093Z,97814.88
2022-08-08T01:12:36.800Z,97811.31
2022-08-08T01:15:53.427Z,97809.63
2022-08-08T01:18:52.655Z,97796.16
2022-08-08T01:22:11.908Z,97779.50
2022-08-08T01:24:58.658Z,97782.41
2022-08-08T01:28:06.262Z,97798.41
2022-08-08T01:31:10.498Z,97797.44
2022-08-08T01:34:32.139Z,97800.59
2022-08-08T01:37:57.465Z,97801.75
2022-08-08T01:40:28.048Z,97796.66
2022-08-08T01:43:08.317Z,97803.25
2022-08-08T01:46:04.101Z,97799.50
2022-08-08T01:48:57.261Z,97798.34
2022-08-08T01:52:53.518Z,97795.16
2022-08-08T01:55:45.295Z,97799.75
2022-08-08T01:58:04.181Z,97794.09
2022-08-08T02:00:57.526Z,97786.03
2022-08-08T02:03:54.426Z,97797.34
2022-08-08T02:06:45.049Z,97803.75
2022-08-08T02:10:02.512Z,97787.34
2022-08-08T02:12:24.029Z,97792.69
2022-08-08T02:14:59.728Z,97796.72
2022-08-08T02:17:42.856Z,97803.78
2022-08-08T02:21:02.500Z,97821.59
2022-08-08T02:23:19.620Z,97776.75
2022-08-08T02:26:00.605Z,97799.03
2022-08-08T02:28:51.890Z,97798.72
2022-08-08T02:31:57.855Z,97726.56
2022-08-08T02:35:08.041Z,97797.13
2022-08-08T02:37:52.437Z,97795.31
2022-08-08T02:40:38.992Z,97790.31
2022-08-08T02:44:42.296Z,97682.41
2022-08-08T02:46:46.854Z,97810.78
2022-08-08T02:49:50.619Z,97782.31
2022-08-08T02:52:51.411Z,97804.63
2022-08-08T02:55:48.160Z,97791.06
2022-08-08T02:59:26.163Z,97810.91
2022-08-08T03:02:36.745Z,97789.13
2022-08-08T03:05:46.430Z,97797.09
2022-08-08T03:08:52.166Z,97816.75
2022-08-08T03:12:02.604Z,97817.59
2022-08-08T03:15:57.613Z,97812.91
2022-08-08T03:18:07.621Z,97807.56
2022-08-08T03:20:46.935Z,97829.56
2022-08-08T03:23:21.757Z,97702.78
2022-08-08T03:25:52.741Z,97822.38
2022-08-08T03:28:29.238Z,97833.59
2022-08-08T03:31:13.661Z,97803.28
2022-08-08T03:33:56.133Z,97840.41
2022-08-08T03:36:30.384Z,97838.69
2022-08-08T03:39:14.964Z,97807.84
2022-08-08T03:42:13.060Z,97832.34
2022-08-08T03:44:35.096Z,97831.03
2022-08-08T03:47:14.129Z,97829.03
2022-08-08T03:49:58.887Z,97815.00
2022-08-08T03:52:34.062Z,97794.53
2022-08-08T03:55:55.654Z,97833.19
2022-08-08T03:58:30.074Z,97829.41
2022-08-08T04:01:02.657Z,97840.81
2022-08-08T04:03:58.126Z,97840.28
2022-08-08T04:06:30.004Z,97784.75
2022-08-08T04:09:08.879Z,97836.03
2022-08-08T04:11:59.012Z,97704.25
2022-08-08T04:14:34.641Z,97839.41
2022-08-08T04:17:15.473Z,97840.88
2022-08-08T04:19:52.287Z,97842.50
2022-08-08T04:22:24.095Z,97830.50
2022-08-08T04:24:52.689Z,97846.09
2022-08-08T04:28:02.899Z,97840.06
2022-08-08T04:30:18.271Z,97844.09
2022-08-08T04:32:50.028Z,97850.94
2022-08-08T04:35:20.308Z,97869.63
2022-08-08T04:37:51.631Z,97823.31
2022-08-08T04:40:24.185Z,97867.97
2022-08-08T04:43:00.765Z,97859.47
2022-08-08T04:45:29.896Z,97852.44
2022-08-08T04:48:00.675Z,97872.50
2022-08-08T04:50:37.506Z,97866.88
2022-08-08T04:53:14.317Z,97879.97
2022-08-08T04:55:56.823Z,97809.31
2022-08-08T04:58:26.968Z,97883.53
2022-08-08T05:00:55.568Z,97873.47
2022-08-08T05:04:11.563Z,97875.47
2022-08-08T05:06:18.384Z,97879.84
2022-08-08T05:09:02.197Z,97891.25
2022-08-08T05:11:38.672Z,97874.53
2022-08-08T05:14:11.017Z,97890.50
2022-08-08T05:16:52.194Z,97888.38
2022-08-08T05:20:11.690Z,97876.06
2022-08-08T05:22:17.911Z,97892.00
2022-08-08T05:24:48.590Z,97886.00
2022-08-08T05:27:17.491Z,97893.28
2022-08-08T05:29:50.276Z,97896.63
2022-08-08T05:32:24.718Z,97894.03
2022-08-08T05:35:04.713Z,97883.59
2022-08-08T05:37:52.332Z,97904.88
2022-08-08T05:40:28.377Z,97893.75
2022-08-08T05:43:02.896Z,97908.66
2022-08-08T05:46:03.378Z,97908.88
2022-08-08T05:48:34.585Z,97904.81
2022-08-08T05:51:14.347Z,97849.81
2022-08-08T05:54:24.402Z,97900.88
2022-08-08T05:56:42.381Z,97903.59
2022-08-08T05:59:59.139Z,97921.19
2022-08-08T06:02:40.801Z,97908.84
2022-08-08T06:05:33.209Z,97894.72
2022-08-08T06:08:14.498Z,97907.22
2022-08-08T06:10:55.343Z,97916.31
2022-08-08T06:13:24.143Z,97916.31
2022-08-08T06:15:55.192Z,97880.78
2022-08-08T06:18:28.157Z,97913.88
2022-08-08T06:20:58.111Z,97915.91
2022-08-08T06:23:53.352Z,97912.69
2022-08-08T06:26:38.675Z,97816.03
2022-08-08T06:29:26.916Z,97832.94
2022-08-08T06:32:11.428Z,97897.53
2022-08-08T06:34:52.516Z,97919.56
2022-08-08T06:37:40.115Z,97921.25
2022-08-08T06:40:16.278Z,97936.19
2022-08-08T06:42:53.965Z,97925.78
2022-08-08T06:45:23.626Z,97926.75
2022-08-08T06:48:01.285Z,97849.09
2022-08-08T06:50:33.599Z,97914.38
2022-08-08T06:53:17.269Z,97912.84
2022-08-08T06:56:02.389Z,97808.09
2022-08-08T06:58:33.175Z,97897.66
2022-08-08T07:01:11.722Z,97933.34
2022-08-08T07:04:39.041Z,97938.03
2022-08-08T07:06:51.734Z,97941.78
2022-08-08T07:09:21.981Z,97924.28
2022-08-08T07:11:59.834Z,97925.88
2022-08-08T07:14:35.646Z,97944.03
2022-08-08T07:17:09.423Z,97939.84
2022-08-08T07:19:51.089Z,97852.97
2022-08-08T07:22:28.815Z,97938.50
2022-08-08T07:25:06.871Z,97939.34
2022-08-08T07:28:01.777Z,97940.53
2022-08-08T07:30:27.591Z,97940.66
2022-08-08T07:32:59.569Z,97942.44
2022-08-08T07:35:31.000Z,97942.34
2022-08-08T07:38:10.546Z,97934.78
2022-08-08T07:40:50.455Z,97938.06
2022-08-08T07:43:32.158Z,97944.19
2022-08-08T07:46:23.088Z,97911.50
2022-08-08T07:48:53.177Z,97935.06
2022-08-08T07:51:23.972Z,97946.84
2022-08-08T07:54:26.665Z,97931.28
2022-08-08T07:57:08.956Z,97952.75
2022-08-08T07:59:59.618Z,97892.38
2022-08-08T08:02:38.727Z,97960.09
2022-08-08T08:05:15.014Z,97952.50
2022-08-08T08:07:45.867Z,97957.13
2022-08-08T08:10:30.795Z,97954.00
2022-08-08T08:13:25.296Z,97944.69
2022-08-08T08:16:17.124Z,97942.97
2022-08-08T08:18:55.490Z,97950.31
2022-08-08T08:21:44.208Z,97965.22
2022-08-08T08:24:16.258Z,97965.22
2022-08-08T08:26:52.939Z,97954.97
2022-08-08T08:29:24.318Z,97932.34
2022-08-08T08:31:59.093Z,97973.53
2022-08-08T08:34:33.900Z,97975.41
2022-08-08T08:37:03.333Z,97968.41
2022-08-08T08:39:59.827Z,97976.91
2022-08-08T08:42:29.446Z,97980.59
2022-08-08T08:45:01.694Z,97939.84
2022-08-08T08:47:52.916Z,97957.72
2022-08-08T08:50:33.581Z,97986.03
2022-08-08T08:53:27.996Z,97980.19
2022-08-08T08:56:01.904Z,97978.72
2022-08-08T08:58:41.354Z,97981.28
2022-08-08T09:01:13.564Z,97687.91
2022-08-08T09:03:50.835Z,97927.19
2022-08-08T09:06:26.293Z,97987.78
2022-08-08T09:09:02.873Z,97878.25
2022-08-08T09:11:47.567Z,97975.13
2022-08-08T09:14:27.364Z,97975.41
2022-08-08T09:16:55.926Z,97976.75
2022-08-08T09:21:54.094Z,97971.88
2022-08-08T09:22:25.915Z,97990.28
2022-08-08T09:24:58.618Z,97992.47
2022-08-08T09:27:56.812Z,97988.19
2022-08-08T09:30:20.234Z,97992.59
2022-08-08T09:33:54.873Z,97988.69
2022-08-08T09:35:50.016Z,97986.34
2022-08-08T09:38:32.918Z,97997.09
2022-08-08T09:41:07.437Z,97985.50
2022-08-08T09:44:05.409Z,97979.09
2022-08-08T09:46:45.088Z,97897.06
2022-08-08T09:49:40.956Z,97978.31
2022-08-08T09:52:09.193Z,97980.38
2022-08-08T09:54:46.105Z,97959.94
2022-08-08T09:57:25.007Z,97979.66
2022-08-08T10:00:28.831Z,97979.13
2022-08-08T10:02:46.015Z,97977.47
2022-08-08T10:05:22.947Z,97920.94
2022-08-08T10:08:00.379Z,97953.69
2022-08-08T10:10:31.920Z,97965.59
2022-08-08T10:13:06.039Z,97930.00
2022-08-08T10:16:01.119Z,97975.47
2022-08-08T10:18:34.572Z,97976.97
2022-08-08T10:21:22.958Z,97861.88
2022-08-08T10:24:00.046Z,97962.97
2022-08-08T10:26:57.268Z,97976.88
2022-08-08T10:29:25.123Z,97979.31
2022-08-08T10:32:17.443Z,97890.59
2022-08-08T10:35:01.455Z,97976.03
2022-08-08T10:37:34.703Z,97972.00
2022-08-08T10:40:16.100Z,97963.97
2022-08-08T10:42:46.769Z,97961.63
2022-08-08T10:45:17.214Z,97887.97
2022-08-08T10:47:55.313Z,97956.72
2022-08-08T10:50:33.245Z,97956.84
2022-08-08T10:53:07.532Z,97963.47
2022-08-08T10:55:46.324Z,97931.19
2022-08-08T10:58:16.089Z,97961.88
2022-08-08T11:00:53.106Z,97953.00
2022-08-08T11:04:00.970Z,97959.09
2022-08-08T11:06:34.993Z,97958.69
2022-08-08T11:09:15.107Z,97947.09
2022-08-08T11:12:06.317Z,97960.53
2022-08-08T11:14:36.962Z,97936.16
2022-08-08T11:17:15.664Z,97954.44
2022-08-08T11:19:46.577Z,97960.28
2022-08-08T11:22:26.986Z,97945.53
2022-08-08T11:24:58.663Z,97942.34
2022-08-08T11:27:37.194Z,97967.44
2022-08-08T11:30:24.195Z,97965.06
2022-08-08T11:32:56.918Z,97965.19
2022-08-08T11:35:38.608Z,97947.47
2022-08-08T11:38:36.497Z,97968.91
2022-08-08T11:41:04.728Z,97952.03
2022-08-08T11:43:38.823Z,97972.88
2022-08-08T11:46:13.973Z,97966.66
2022-08-08T11:48:48.042Z,97949.66
2022-08-08T11:51:38.185Z,97950.91
2022-08-08T11:54:26.875Z,97963.56
2022-08-08T11:57:17.047Z,97963.78
2022-08-08T12:00:01.705Z,97960.59
2022-08-08T12:02:48.571Z,97958.16
2022-08-08T12:05:22.796Z,97961.28
2022-08-08T12:07:55.812Z,97924.53
2022-08-08T12:10:27.579Z,97955.19
2022-08-08T12:13:03.146Z,97938.94
2022-08-08T12:15:42.450Z,97965.88
2022-08-08T12:18:25.006Z,97966.25
2022-08-08T12:20:56.680Z,97957.84
2022-08-08T12:23:43.377Z,97966.41
2022-08-08T12:26:27.833Z,97964.56
2022-08-08T12:29:25.838Z,97964.31
2022-08-08T12:32:13.274Z,97971.28
2022-08-08T12:34:44.075Z,97959.72
2022-08-08T12:37:22.513Z,97961.16
2022-08-08T12:40:01.043Z,97957.97
2022-08-08T12:42:33.671Z,97944.91
2022-08-08T12:45:20.231Z,97942.25
2022-08-08T12:48:09.665Z,97951.75
2022-08-08T12:50:46.924Z,97957.38
2022-08-08T12:53:30.137Z,97954.56
2022-08-08T12:56:19.408Z,97957.84
2022-08-08T12:58:55.263Z,97954.31
2022-08-08T13:01:36.812Z,97938.50
2022-08-08T13:04:18.827Z,97892.78
2022-08-08T13:06:55.995Z,97954.56
2022-08-08T13:09:43.247Z,97949.94
2022-08-08T13:12:29.946Z,97926.31
2022-08-08T13:15:03.360Z,97949.44
2022-08-08T13:18:09.716Z,97943.47
2022-08-08T13:20:22.161Z,97887.22
2022-08-08T13:22:55.932Z,97919.84
2022-08-08T13:25:36.862Z,97931.41
2022-08-08T13:28:05.618Z,97897.56
2022-08-08T13:30:35.600Z,97934.97
2022-08-08T13:33:05.812Z,97938.63
2022-08-08T13:35:40.479Z,97934.72
2022-08-08T13:38:13.389Z,97926.44
2022-08-08T13:40:45.050Z,97916.81
2022-08-08T13:43:16.039Z,97926.16
2022-08-08T13:45:47.146Z,97925.72
2022-08-08T13:48:17.348Z,97927.91
2022-08-08T13:50:58.044Z,97909.25
2022-08-08T13:53:53.388Z,97906.69
2022-08-08T13:56:44.547Z,97902.78
2022-08-08T13:59:32.986Z,97919.34
2022-08-08T14:02:07.734Z,97905.69
2022-08-08T14:04:52.897Z,97925.31
2022-08-08T14:07:23.453Z,97885.25
2022-08-08T14:10:04.904Z,97924.84
2022-08-08T14:12:46.859Z,97919.84
2022-08-08T14:15:31.178Z,97911.59
2022-08-08T14:18:35.932Z,97919.59
2022-08-08T14:21:08.119Z,97909.41
2022-08-08T14:24:04.199Z,97922.56
2022-08-08T14:26:33.534Z,97907.16
2022-08-08T14:29:05.845Z,97925.41
2022-08-08T14:32:09.343Z,97920.91
2022-08-08T14:34:39.060Z,97918.59
2022-08-08T14:37:08.531Z,97927.13
2022-08-08T14:39:48.473Z,97928.72
2022-08-08T14:42:17.772Z,97932.38
2022-08-08T14:44:57.338Z,97825.28
2022-08-08T14:47:26.190Z,97925.69
2022-08-08T14:50:15.240Z,97936.50
2022-08-08T14:52:54.902Z,97909.81
2022-08-08T14:55:35.648Z,97949.41
2022-08-08T14:58:19.854Z,97942.28
2022-08-08T15:00:50.690Z,97929.13
2022-08-08T15:03:19.153Z,97947.50
2022-08-08T15:05:53.822Z,97946.19
2022-08-08T15:08:35.385Z,97949.69
2022-08-08T15:11:10.432Z,97952.88
2022-08-08T15:14:01.147Z,97953.13
2022-08-08T15:16:34.353Z,97953.50
2022-08-08T15:19:03.889Z,97939.13
2022-08-08T15:21:34.436Z,97933.88
2022-08-08T15:24:14.009Z,97933.75
2022-08-08T15:26:44.313Z,97943.00
2022-08-08T15:29:22.544Z,97936.31
2022-08-08T15:32:17.736Z,97952.16
2022-08-08T15:34:41.223Z,97954.97
2022-08-08T15:37:12.905Z,97942.53
2022-08-08T15:39:41.811Z,97959.56
2022-08-08T15:42:17.809Z,97955.81
2022-08-08T15:44:59.123Z,97955.91
2022-08-08T15:47:27.379Z,97964.22
2022-08-08T15:49:55.735Z,97955.91
2022-08-08T15:52:25.924Z,97962.88
2022-08-08T15:54:54.541Z,97963.50
2022-08-08T15:57:23.684Z,97962.25
2022-08-08T16:00:17.987Z,97960.19
2022-08-08T16:02:44.565Z,97960.66
2022-08-08T16:05:20.690Z,97887.06
2022-08-08T16:07:54.009Z,97968.13
2022-08-08T16:13:08.671Z,97977.66
2022-08-08T16:13:45.231Z,97940.47
2022-08-08T16:16:08.984Z,97961.44
2022-08-08T16:18:42.710Z,97971.66
2022-08-08T16:21:26.049Z,97969.25
2022-08-08T16:23:56.444Z,97977.22
2022-08-08T16:26:34.037Z,97999.25
2022-08-08T16:29:07.790Z,97989.09
2022-08-08T16:31:37.712Z,97998.22
2022-08-08T16:34:07.201Z,97987.97
2022-08-08T16:36:37.786Z,97992.41
2022-08-08T16:39:09.691Z,97879.09
2022-08-08T16:41:51.260Z,97999.41
2022-08-08T16:44:27.402Z,97990.34
2022-08-08T16:47:17.029Z,98004.28
2022-08-08T16:49:47.719Z,98008.31
2022-08-08T16:55:00.270Z,98010.03
2022-08-08T16:55:33.954Z,98014.66
2022-08-08T16:58:15.645Z,97998.06
2022-08-08T17:00:49.042Z,98005.19
2022-08-08T17:03:25.079Z,98018.97
2022-08-08T17:06:35.324Z,98024.03
2022-08-08T17:08:57.180Z,98016.03
2022-08-08T17:11:28.391Z,98026.63
2022-08-08T17:14:18.854Z,98033.41
2022-08-08T17:16:51.829Z,98022.88
2022-08-08T17:19:28.717Z,98035.28
2022-08-08T17:21:57.760Z,97939.19
2022-08-08T17:24:30.183Z,98026.53
2022-08-08T17:27:02.392Z,98020.28
2022-08-08T17:29:34.072Z,98039.03
2022-08-08T17:32:05.914Z,98038.84
2022-08-08T17:35:04.494Z,98032.09
2022-08-08T17:37:25.863Z,98052.34
2022-08-08T17:40:12.298Z,98059.31
2022-08-08T17:42:47.209Z,98024.47
2022-08-08T17:45:23.721Z,98013.69
2022-08-08T17:47:54.581Z,98061.66
2022-08-08T17:50:24.969Z,98042.19
2022-08-08T17:52:53.807Z,98014.44
2022-08-08T17:56:07.153Z,97996.16
2022-08-08T17:58:15.865Z,98038.47
2022-08-08T18:00:54.350Z,97961.16
2022-08-08T18:03:26.449Z,98042.97
2022-08-08T18:05:55.373Z,98041.56
2022-08-08T18:08:37.942Z,98022.22
2022-08-08T18:11:14.999Z,98039.94
2022-08-08T18:13:47.245Z,98034.69
2022-08-08T18:16:23.211Z,98023.84
2022-08-08T18:18:55.894Z,98056.59
2022-08-08T18:22:00.079Z,98020.41
2022-08-08T18:24:18.722Z,97979.22
2022-08-08T18:26:54.890Z,98058.97
2022-08-08T18:29:33.247Z,98076.22
2022-08-08T18:32:04.164Z,98075.69
2022-08-08T18:34:33.689Z,98079.81
2022-08-08T18:37:07.940Z,98084.31
2022-08-08T18:39:37.845Z,98084.81
2022-08-08T18:42:13.820Z,98056.09
2022-08-08T18:44:54.972Z,97795.41
2022-08-08T18:47:25.939Z,98093.59
2022-08-08T18:49:58.279Z,98082.03
2022-08-08T18:52:29.734Z,98087.97
2022-08-08T18:55:09.481Z,98100.22
2022-08-08T18:57:41.490Z,98092.34
2022-08-08T19:00:20.622Z,98111.72
2022-08-08T19:02:57.050Z,98083.66
2022-08-08T19:05:30.702Z,98101.53
2022-08-08T19:08:24.092Z,98127.53
2022-08-08T19:10:56.758Z,98130.31
2022-08-08T19:13:25.446Z,98131.53
2022-08-08T19:16:18.765Z,98119.34
2022-08-08T19:18:54.556Z,98142.75
2022-08-08T19:21:30.495Z,98139.81
2022-08-08T19:23:59.908Z,98136.28
2022-08-08T19:26:30.155Z,98042.06
2022-08-08T19:28:59.736Z,98046.25
2022-08-08T19:31:31.613Z,98136.50
2022-08-08T19:34:35.696Z,98138.94
2022-08-08T19:36:55.313Z,98071.84
2022-08-08T19:39:26.706Z,98144.09
2022-08-08T19:42:05.294Z,98122.97
2022-08-08T19:44:43.061Z,98140.88
2022-08-08T19:47:16.029Z,98154.38
2022-08-08T19:49:59.744Z,98151.81
2022-08-08T19:52:35.512Z,98126.78
2022-08-08T19:55:11.238Z,98116.13
2022-08-08T19:57:41.267Z,98135.25
2022-08-08T20:00:28.995Z,98140.56
2022-08-08T20:03:01.275Z,98138.00
2022-08-08T20:06:13.472Z,98070.44
2022-08-08T20:08:28.950Z,98145.13
2022-08-08T20:11:00.300Z,98123.53
2022-08-08T20:14:32.141Z,98132.88
2022-08-08T20:16:17.218Z,98138.31
2022-08-08T20:18:53.058Z,98123.94
2022-08-08T20:21:24.920Z,98151.16
2022-08-08T20:23:58.073Z,98136.03
2022-08-08T20:26:30.250Z,98159.31
2022-08-08T20:29:03.614Z,98053.31
2022-08-08T20:31:47.044Z,98152.28
2022-08-08T20:34:30.983Z,98148.50
2022-08-08T20:37:02.611Z,98153.13
2022-08-08T20:39:39.375Z,98148.66
2022-08-08T20:42:28.494Z,98154.56
2022-08-08T20:44:58.742Z,98163.16
2022-08-08T20:47:36.291Z,98128.78
2022-08-08T20:50:10.051Z,98145.69
2022-08-08T20:52:40.058Z,98123.81
2022-08-08T20:55:22.828Z,98145.50
2022-08-08T20:57:54.301Z,98134.06
2022-08-08T21:00:26.771Z,98097.94
2022-08-08T21:02:55.189Z,98125.88
2022-08-08T21:05:31.654Z,98139.00
2022-08-08T21:08:35.996Z,98140.06
2022-08-08T21:10:50.240Z,98138.50
2022-08-08T21:13:18.462Z,98143.63
2022-08-08T21:16:05.232Z,98130.16
2022-08-08T21:18:35.255Z,98111.88
2022-08-08T21:21:20.765Z,98128.19
2022-08-08T21:24:09.329Z,98122.09
2022-08-08T21:26:47.674Z,98124.13
2022-08-08T21:29:20.204Z,98131.81
2022-08-08T21:31:58.643Z,98143.03
2022-08-08T21:34:30.088Z,98133.69
2022-08-08T21:37:05.250Z,98093.22
2022-08-08T21:39:54.933Z,98118.94
2022-08-08T21:42:25.188Z,98126.75
2022-08-08T21:44:59.149Z,98126.75
2022-08-08T21:48:20.133Z,98138.25
2022-08-08T21:50:31.003Z,98132.56
2022-08-08T21:54:27.116Z,98113.34
2022-08-08T21:56:20.066Z,98129.78
2022-08-08T21:58:38.971Z,98128.06
2022-08-08T22:01:28.332Z,98092.50
2022-08-08T22:04:00.645Z,98128.53
2022-08-08T22:06:32.027Z,98057.88
2022-08-08T22:09:02.839Z,98119.25
2022-08-08T22:11:55.038Z,98124.09
2022-08-08T22:14:26.528Z,98092.13
2022-08-08T22:16:55.380Z,98107.59
2022-08-08T22:19:24.360Z,98116.72
2022-08-08T22:21:57.272Z,98100.22
2022-08-08T22:24:28.642Z,98018.06
2022-08-08T22:27:02.457Z,98137.31
2022-08-08T22:29:58.839Z,97970.66
2022-08-08T22:32:20.279Z,98131.25
2022-08-08T22:34:51.097Z,98138.28
2022-08-08T22:37:49.926Z,98127.72
2022-08-08T22:40:11.697Z,98146.25
2022-08-08T22:42:47.368Z,98128.16
2022-08-08T22:45:16.830Z,98135.44
2022-08-08T22:47:47.023Z,98134.09
2022-08-08T22:50:25.477Z,98146.50
2022-08-08T22:54:15.845Z,98142.81
2022-08-08T22:55:59.603Z,98148.66
2022-08-08T22:58:33.808Z,98147.94
2022-08-08T23:01:16.498Z,98098.81
2022-08-08T23:03:53.317Z,98140.03
2022-08-08T23:06:23.191Z,98106.69
2022-08-08T23:08:55.410Z,98101.97
2022-08-08T23:11:58.156Z,98140.56
2022-08-08T23:14:17.829Z,98157.22
2022-08-08T23:16:54.564Z,98166.22
2022-08-08T23:19:26.354Z,98156.53
2022-08-08T23:21:54.531Z,98123.94
2022-08-08T23:24:23.513Z,98111.06
2022-08-08T23:26:56.170Z,98160.16
2022-08-08T23:29:25.619Z,98158.63
2022-08-08T23:31:54.284Z,97887.28
2022-08-08T23:34:23.290Z,98142.03
2022-08-08T23:36:58.012Z,98084.75
2022-08-08T23:39:32.349Z,98137.44
2022-08-08T23:42:11.940Z,98143.59
2022-08-08T23:44:40.091Z,98149.25
2022-08-08T23:49:00.210Z,98157.81
2022-08-08T23:50:02.872Z,98153.78
2022-08-08T23:52:33.910Z,98151.78
2022-08-08T23:55:19.515Z,98146.63
2022-08-08T23:57:52.843Z,98151.94
